AirNav   Phillips 66 Aviation Fuel
 
 825 users online  

2VA Zangger Vintage Airpark
Larchwood, Iowa, USA

GOING TO LARCHWOOD?


FAA INFORMATION EFFECTIVE 06 DECEMBER 2018

Location

FAA Identifier: 2VA
Lat/Long: 43-26-58.5450N / 096-24-09.1650W
43-26.975750N / 096-24.152750W
43.4495958 / -96.4025458
(estimated)
Elevation: 1476 ft. / 449.9 m (surveyed)
Variation: 06E (1985)
From city: 2 miles E of LARCHWOOD, IA
Time zone: UTC -6 (UTC -5 during Daylight Saving Time)
Zip code: 51241

Airport Operations

Airport use: Open to the public
Activation date: 10/1953
Control tower: no
ARTCC: MINNEAPOLIS CENTER
FSS: FORT DODGE FLIGHT SERVICE STATION
NOTAMs facility: FOD (NOTAM-D service available)
Attendance: ON CALL
MANAGER LIVES ONSITE 605-370-1139
Wind indicator: yes
Segmented circle: no
Lights: ACTVT LIRL RWY 12/30 - 123.45

Airport Communications

CTAF: 122.9
WX AWOS-3 at LYV (13 nm NE): 119.825 (507-283-5027)
WX ASOS at FSD (17 nm NW): PHONE 605-331-7833

Nearby radio navigation aids

VOR radial/distance  VOR name  Freq  Var
FSDr117/20.4SIOUX FALLS VORTAC115.0009E
OTGr244/37.6WORTHINGTON VOR/DME110.6008E

 
NDB name  Hdg/Dist  Freq  Var  ID
SIOUX CENTER329/21.136805ESOY ... --- -.--
SIBLEY275/28.826905EISB .. ... -...

Airport Services

Airframe service: NONE
Powerplant service: NONE

Runway Information

Runway 12/30

Dimensions: 2000 x 100 ft. / 610 x 30 m
Surface: turf, in good condition
Runway edge lights: low intensity
Runway edge markings: MKD WITH YELLOW CONES.
RUNWAY 12  RUNWAY 30
Latitude: 43-27.077333N43-26.874167N
Longitude: 096-24.330500W096-23.975000W
Elevation: 1476.0 ft.1443.0 ft.
Gradient: 1.7% UP
Traffic pattern: leftleft
Runway heading: 122 magnetic, 128 true302 magnetic, 308 true
Touchdown point: yes, no lightsyes, no lights
Obstructions: 31 ft. tree, 465 ft. from runway, 120 ft. right of centerline, 15:1 slope to clear115 ft. bldg, 2990 ft. from runway, 50 ft. right of centerline, 26:1 slope to clear
SILO

Airport Ownership and Management from official FAA records

Ownership: Privately-owned
Owner: JIM ZANGGER
1351 AIRPORT ROAD NORTH
LARCHWOOD, IA 51241
Phone 712-477-2230
Manager: JIM ZANGGER
1351 AIRPORT ROAD NORTH
LARCHWOOD, IA 51241
Phone 712-477-2230

Airport Operational Statistics

Aircraft based on the field: 21
Single engine airplanes: 20
Ultralights: 1
    
Aircraft operations: avg 67/month *
50% transient general aviation
50% local general aviation
* for 12-month period ending 21 November 2016

Additional Remarks

ARPT CLSD DEC- FEB NO SNOW REMOVAL.
THE UNMKD HARD SFC PAVEMENT THAT INTERSECTS TURF RY 12/30 IS AN ASPH TWY.

Instrument Procedures

There are no published instrument procedures at 2VA.

Some nearby airports with instrument procedures:

KRRQ - Rock Rapids Municipal Airport (10 nm E)
KLYV - Quentin Aanenson Field Airport (13 nm NE)
KFSD - Joe Foss Field Airport (17 nm NW)
KSOY - Sioux Center Municipal Airport (21 nm SE)
KISB - Sibley Municipal Airport (28 nm E)
 
Loc | Ops | Rwys | IFR | FBO | Links
Com | Nav | Svcs | Stats | Notes


 
Area around 2VA (Zangger Vintage Airpark)
 
Road maps at: MapQuest Bing Google
 
Aerial photo
WARNING: Photo may not be current or correct
Aerial photo of 2VA (Zangger Vintage Airpark)
Taken in September 2005

Do you have a better or more recent aerial photo of Zangger Vintage Airpark that you would like to share? If so, please send us your photo.

 
Sectional chart

 
Airport distance calculator
Flying to Zangger Vintage Airpark? Find the distance to fly.

From to 2VA

Sunrise and sunset
Times for 12-Dec-2018
 Local
(UTC-6)
 Zulu
(UTC)
Morning civil twilight07:1813:18
Sunrise07:5013:50
Sunset16:4922:49
Evening civil twilight17:2123:21

Current date and time
Zulu (UTC)  13-Dec-2018 02:58:41
Local (UTC-6)  12-Dec-2018 20:58:41
 
METAR
7G9 
11nm SW 
SuperAWOS
130235Z AUTO 09005KT 10SM M02/M04 A2970
KLYV 
13nm NE 
130236Z AUTO 11005KT 4SM BR OVC001 M02/M03 A2976 RMK AO2
KFSD 
17nm NW 
130232Z 11006KT 6SM BR SCT004 M02/M03 A2973 RMK AO2 T10221033
Y14 
17nm W 
SuperAWOS
130235Z AUTO 00000KT 5SM BR M04/M04 A2967
TAF
KFSD 
17nm NW 
121722Z 1218/1318 VRB03KT 1/4SM FZFG OVC002 TEMPO 1218/1220 3/4SM BR BKN003 FM122000 VRB04KT 4SM BR SCT002 BKN100 FM122200 15005KT P6SM SCT003 BKN190 FM130200 VRB04KT 1SM BR OVC006 FM131000 32008KT 4SM -SN BR OVC010 FM131300 32013KT P6SM BKN015 FM131500 32015G23KT P6SM SCT025 BKN200
NOTAMs
Click for the latest NOTAMs
NOTAMs are issued by the DoD/FAA and will open in a separate window not controlled by AirNav.

 

 
 

Would you like to see your business listed on this page?

 If your business provides an interesting product or service to pilots, flight crews, aircraft, or users of the Zangger Vintage Airpark, you should consider listing it here.  To start the listing process, click on the button below
 
Add a business
 

Other Pages about Zangger Vintage Airpark

Update a link
 
Copyright © AirNav, LLC. All rights reserved. Privacy Policy  Contact